sensor_id;sensor_type;location;lat;lon;timestamp;P1;durP1;ratioP1;P2;durP2;ratioP2
14205;SDS011;7186;48.800;9.216;2023-04-25T00:01:16;2.17;;;1.73;;
14205;SDS011;7186;48.800;9.216;2023-04-25T00:03:41;2.00;;;1.60;;
14205;SDS011;7186;48.800;9.216;2023-04-25T00:06:06;2.10;;;1.60;;
14205;SDS011;7186;48.800;9.216;2023-04-25T00:08:32;2.00;;;1.90;;
14205;SDS011;7186;48.800;9.216;2023-04-25T00:10:57;6.77;;;3.80;;
14205;SDS011;7186;48.800;9.216;2023-04-25T00:13:22;7.73;;;4.17;;
14205;SDS011;7186;48.800;9.216;2023-04-25T00:15:48;3.53;;;2.90;;
14205;SDS011;7186;48.800;9.216;2023-04-25T00:18:14;4.23;;;2.00;;
14205;SDS011;7186;48.800;9.216;2023-04-25T00:20:39;2.20;;;2.00;;
14205;SDS011;7186;48.800;9.216;2023-04-25T00:23:04;1.93;;;1.83;;
14205;SDS011;7186;48.800;9.216;2023-04-25T00:25:29;2.13;;;1.80;;
14205;SDS011;7186;48.800;9.216;2023-04-25T00:27:55;1.83;;;1.73;;
14205;SDS011;7186;48.800;9.216;2023-04-25T00:30:20;3.50;;;2.30;;
14205;SDS011;7186;48.800;9.216;2023-04-25T00:32:45;2.00;;;1.90;;
14205;SDS011;7186;48.800;9.216;2023-04-25T00:35:11;1.80;;;1.70;;
14205;SDS011;7186;48.800;9.216;2023-04-25T00:37:36;2.13;;;1.80;;
14205;SDS011;7186;48.800;9.216;2023-04-25T00:40:01;1.70;;;1.60;;
14205;SDS011;7186;48.800;9.216;2023-04-25T00:42:27;2.10;;;1.90;;
14205;SDS011;7186;48.800;9.216;2023-04-25T00:44:53;1.90;;;1.80;;
14205;SDS011;7186;48.800;9.216;2023-04-25T00:47:18;2.00;;;1.80;;
14205;SDS011;7186;48.800;9.216;2023-04-25T00:49:44;2.43;;;1.67;;
14205;SDS011;7186;48.800;9.216;2023-04-25T00:52:09;2.23;;;1.93;;
14205;SDS011;7186;48.800;9.216;2023-04-25T00:54:35;3.30;;;1.93;;
14205;SDS011;7186;48.800;9.216;2023-04-25T00:57:00;2.60;;;1.70;;
14205;SDS011;7186;48.800;9.216;2023-04-25T00:59:26;2.57;;;2.03;;
14205;SDS011;7186;48.800;9.216;2023-04-25T01:01:52;5.03;;;2.10;;
14205;SDS011;7186;48.800;9.216;2023-04-25T01:04:18;2.57;;;2.10;;
14205;SDS011;7186;48.800;9.216;2023-04-25T01:06:43;2.97;;;2.27;;
14205;SDS011;7186;48.800;9.216;2023-04-25T01:09:08;4.73;;;2.07;;
14205;SDS011;7186;48.800;9.216;2023-04-25T01:11:34;3.90;;;2.40;;
14205;SDS011;7186;48.800;9.216;2023-04-25T01:13:59;2.37;;;2.10;;
14205;SDS011;7186;48.800;9.216;2023-04-25T01:16:25;3.10;;;2.00;;
14205;SDS011;7186;48.800;9.216;2023-04-25T01:18:51;2.60;;;2.20;;
14205;SDS011;7186;48.800;9.216;2023-04-25T01:21:16;4.00;;;2.00;;
14205;SDS011;7186;48.800;9.216;2023-04-25T01:23:41;4.00;;;2.40;;
14205;SDS011;7186;48.800;9.216;2023-04-25T01:26:08;2.33;;;2.23;;
14205;SDS011;7186;48.800;9.216;2023-04-25T01:28:34;2.00;;;1.90;;
14205;SDS011;7186;48.800;9.216;2023-04-25T01:31:00;2.87;;;2.20;;
14205;SDS011;7186;48.800;9.216;2023-04-25T01:33:25;2.67;;;2.07;;
14205;SDS011;7186;48.800;9.216;2023-04-25T01:35:51;3.90;;;2.27;;
14205;SDS011;7186;48.800;9.216;2023-04-25T01:38:16;5.83;;;2.20;;
14205;SDS011;7186;48.800;9.216;2023-04-25T01:40:41;2.30;;;2.10;;
14205;SDS011;7186;48.800;9.216;2023-04-25T01:43:12;2.80;;;2.10;;
14205;SDS011;7186;48.800;9.216;2023-04-25T01:45:39;2.70;;;2.20;;
14205;SDS011;7186;48.800;9.216;2023-04-25T01:48:06;4.07;;;2.30;;
14205;SDS011;7186;48.800;9.216;2023-04-25T01:50:31;3.17;;;2.10;;
14205;SDS011;7186;48.800;9.216;2023-04-25T01:52:56;2.77;;;2.23;;
14205;SDS011;7186;48.800;9.216;2023-04-25T01:55:21;3.40;;;2.10;;
14205;SDS011;7186;48.800;9.216;2023-04-25T01:57:48;2.70;;;2.50;;
14205;SDS011;7186;48.800;9.216;2023-04-25T02:00:13;2.60;;;2.20;;
14205;SDS011;7186;48.800;9.216;2023-04-25T02:02:39;4.57;;;2.60;;
14205;SDS011;7186;48.800;9.216;2023-04-25T02:05:04;3.33;;;2.43;;
14205;SDS011;7186;48.800;9.216;2023-04-25T02:07:30;3.10;;;2.33;;
14205;SDS011;7186;48.800;9.216;2023-04-25T02:09:55;3.50;;;2.40;;
14205;SDS011;7186;48.800;9.216;2023-04-25T02:12:22;2.37;;;2.17;;
14205;SDS011;7186;48.800;9.216;2023-04-25T02:14:47;4.80;;;2.40;;
14205;SDS011;7186;48.800;9.216;2023-04-25T02:17:12;2.00;;;1.90;;
14205;SDS011;7186;48.800;9.216;2023-04-25T02:19:38;3.90;;;2.37;;
14205;SDS011;7186;48.800;9.216;2023-04-25T02:22:03;4.90;;;2.37;;
14205;SDS011;7186;48.800;9.216;2023-04-25T02:24:28;2.30;;;2.10;;
14205;SDS011;7186;48.800;9.216;2023-04-25T02:26:54;4.50;;;2.33;;
14205;SDS011;7186;48.800;9.216;2023-04-25T02:29:20;3.97;;;2.10;;
14205;SDS011;7186;48.800;9.216;2023-04-25T02:31:46;2.87;;;2.20;;
14205;SDS011;7186;48.800;9.216;2023-04-25T02:34:11;3.70;;;2.07;;
14205;SDS011;7186;48.800;9.216;2023-04-25T02:36:36;2.60;;;2.20;;
14205;SDS011;7186;48.800;9.216;2023-04-25T02:39:01;3.50;;;2.13;;
14205;SDS011;7186;48.800;9.216;2023-04-25T02:41:27;3.00;;;2.47;;
14205;SDS011;7186;48.800;9.216;2023-04-25T02:43:53;2.30;;;2.10;;
14205;SDS011;7186;48.800;9.216;2023-04-25T02:46:18;3.60;;;2.27;;
14205;SDS011;7186;48.800;9.216;2023-04-25T02:48:43;5.70;;;2.60;;
14205;SDS011;7186;48.800;9.216;2023-04-25T02:51:08;2.63;;;2.27;;
14205;SDS011;7186;48.800;9.216;2023-04-25T02:53:34;2.97;;;2.23;;
14205;SDS011;7186;48.800;9.216;2023-04-25T02:55:59;3.47;;;2.43;;
14205;SDS011;7186;48.800;9.216;2023-04-25T02:58:24;3.70;;;2.50;;
14205;SDS011;7186;48.800;9.216;2023-04-25T03:00:50;2.43;;;2.20;;
14205;SDS011;7186;48.800;9.216;2023-04-25T03:03:15;3.27;;;2.10;;
14205;SDS011;7186;48.800;9.216;2023-04-25T03:05:42;3.97;;;2.27;;
14205;SDS011;7186;48.800;9.216;2023-04-25T03:08:07;4.23;;;2.20;;
14205;SDS011;7186;48.800;9.216;2023-04-25T03:10:33;4.73;;;2.20;;
14205;SDS011;7186;48.800;9.216;2023-04-25T03:12:58;2.83;;;2.33;;
14205;SDS011;7186;48.800;9.216;2023-04-25T03:15:23;2.30;;;2.10;;
14205;SDS011;7186;48.800;9.216;2023-04-25T03:17:48;2.17;;;1.97;;
14205;SDS011;7186;48.800;9.216;2023-04-25T03:20:14;3.00;;;1.90;;
14205;SDS011;7186;48.800;9.216;2023-04-25T03:22:39;2.90;;;2.67;;
14205;SDS011;7186;48.800;9.216;2023-04-25T03:25:05;2.60;;;2.40;;
14205;SDS011;7186;48.800;9.216;2023-04-25T03:27:30;2.40;;;2.20;;
14205;SDS011;7186;48.800;9.216;2023-04-25T03:29:55;2.33;;;2.10;;
14205;SDS011;7186;48.800;9.216;2023-04-25T03:32:20;2.67;;;2.17;;
14205;SDS011;7186;48.800;9.216;2023-04-25T03:34:46;4.43;;;2.30;;
14205;SDS011;7186;48.800;9.216;2023-04-25T03:37:11;2.87;;;2.30;;
14205;SDS011;7186;48.800;9.216;2023-04-25T03:39:36;4.27;;;2.30;;
14205;SDS011;7186;48.800;9.216;2023-04-25T03:42:02;4.20;;;2.17;;
14205;SDS011;7186;48.800;9.216;2023-04-25T03:44:27;5.20;;;2.30;;
14205;SDS011;7186;48.800;9.216;2023-04-25T03:46:53;2.60;;;2.00;;
14205;SDS011;7186;48.800;9.216;2023-04-25T03:49:18;2.67;;;2.30;;
14205;SDS011;7186;48.800;9.216;2023-04-25T03:51:43;2.80;;;2.03;;
14205;SDS011;7186;48.800;9.216;2023-04-25T03:54:08;3.40;;;2.40;;
14205;SDS011;7186;48.800;9.216;2023-04-25T03:56:34;3.63;;;2.50;;
14205;SDS011;7186;48.800;9.216;2023-04-25T03:58:59;3.67;;;2.30;;
14205;SDS011;7186;48.800;9.216;2023-04-25T04:01:24;2.87;;;2.53;;
14205;SDS011;7186;48.800;9.216;2023-04-25T04:03:50;3.13;;;2.53;;
14205;SDS011;7186;48.800;9.216;2023-04-25T04:06:15;2.90;;;2.17;;
14205;SDS011;7186;48.800;9.216;2023-04-25T04:08:40;2.90;;;2.10;;
14205;SDS011;7186;48.800;9.216;2023-04-25T04:11:05;4.33;;;2.50;;
14205;SDS011;7186;48.800;9.216;2023-04-25T04:13:31;2.67;;;2.40;;
14205;SDS011;7186;48.800;9.216;2023-04-25T04:15:56;3.93;;;2.30;;
14205;SDS011;7186;48.800;9.216;2023-04-25T04:18:22;4.47;;;2.60;;
14205;SDS011;7186;48.800;9.216;2023-04-25T04:20:47;2.67;;;2.47;;
14205;SDS011;7186;48.800;9.216;2023-04-25T04:23:12;2.50;;;2.30;;
14205;SDS011;7186;48.800;9.216;2023-04-25T04:25:38;4.23;;;2.60;;
14205;SDS011;7186;48.800;9.216;2023-04-25T04:28:04;2.93;;;2.30;;
14205;SDS011;7186;48.800;9.216;2023-04-25T04:30:30;2.97;;;2.40;;
14205;SDS011;7186;48.800;9.216;2023-04-25T04:32:56;2.67;;;2.33;;
14205;SDS011;7186;48.800;9.216;2023-04-25T04:35:22;3.90;;;2.50;;
14205;SDS011;7186;48.800;9.216;2023-04-25T04:37:47;2.43;;;2.23;;
14205;SDS011;7186;48.800;9.216;2023-04-25T04:40:13;3.00;;;2.47;;
14205;SDS011;7186;48.800;9.216;2023-04-25T04:42:40;3.10;;;2.30;;
14205;SDS011;7186;48.800;9.216;2023-04-25T04:45:06;3.00;;;2.60;;
14205;SDS011;7186;48.800;9.216;2023-04-25T04:47:31;4.87;;;2.77;;
14205;SDS011;7186;48.800;9.216;2023-04-25T04:49:57;5.80;;;3.23;;
14205;SDS011;7186;48.800;9.216;2023-04-25T04:52:22;3.57;;;2.57;;
14205;SDS011;7186;48.800;9.216;2023-04-25T04:54:47;2.83;;;2.57;;
14205;SDS011;7186;48.800;9.216;2023-04-25T04:57:13;4.00;;;2.53;;
14205;SDS011;7186;48.800;9.216;2023-04-25T04:59:38;4.20;;;2.90;;
14205;SDS011;7186;48.800;9.216;2023-04-25T05:02:06;3.10;;;2.80;;
14205;SDS011;7186;48.800;9.216;2023-04-25T05:04:31;3.27;;;2.53;;
14205;SDS011;7186;48.800;9.216;2023-04-25T05:06:56;4.40;;;3.27;;
14205;SDS011;7186;48.800;9.216;2023-04-25T05:09:21;4.50;;;3.23;;
14205;SDS011;7186;48.800;9.216;2023-04-25T05:11:50;3.57;;;2.90;;
14205;SDS011;7186;48.800;9.216;2023-04-25T05:14:15;3.00;;;2.70;;
14205;SDS011;7186;48.800;9.216;2023-04-25T05:16:42;7.23;;;3.07;;
14205;SDS011;7186;48.800;9.216;2023-04-25T05:19:07;4.00;;;2.73;;
14205;SDS011;7186;48.800;9.216;2023-04-25T05:21:32;6.30;;;2.87;;
14205;SDS011;7186;48.800;9.216;2023-04-25T05:23:57;4.00;;;2.90;;
14205;SDS011;7186;48.800;9.216;2023-04-25T05:26:23;5.13;;;3.20;;
14205;SDS011;7186;48.800;9.216;2023-04-25T05:28:50;12.90;;;4.70;;
14205;SDS011;7186;48.800;9.216;2023-04-25T05:31:16;7.03;;;3.13;;
14205;SDS011;7186;48.800;9.216;2023-04-25T05:33:41;4.20;;;3.10;;
14205;SDS011;7186;48.800;9.216;2023-04-25T05:36:06;20.70;;;5.33;;
14205;SDS011;7186;48.800;9.216;2023-04-25T05:38:32;7.10;;;3.30;;
14205;SDS011;7186;48.800;9.216;2023-04-25T05:40:57;4.60;;;3.03;;
14205;SDS011;7186;48.800;9.216;2023-04-25T05:43:22;5.40;;;2.93;;
14205;SDS011;7186;48.800;9.216;2023-04-25T05:45:47;4.47;;;3.33;;
14205;SDS011;7186;48.800;9.216;2023-04-25T05:48:12;3.67;;;3.10;;
14205;SDS011;7186;48.800;9.216;2023-04-25T05:50:38;4.00;;;3.00;;
14205;SDS011;7186;48.800;9.216;2023-04-25T05:53:03;3.73;;;3.20;;
14205;SDS011;7186;48.800;9.216;2023-04-25T05:55:28;4.73;;;3.30;;
14205;SDS011;7186;48.800;9.216;2023-04-25T05:57:54;5.47;;;3.53;;
14205;SDS011;7186;48.800;9.216;2023-04-25T06:00:19;6.00;;;3.30;;
14205;SDS011;7186;48.800;9.216;2023-04-25T06:02:46;3.87;;;3.20;;
14205;SDS011;7186;48.800;9.216;2023-04-25T06:05:11;3.93;;;3.20;;
14205;SDS011;7186;48.800;9.216;2023-04-25T06:07:36;3.87;;;3.33;;
14205;SDS011;7186;48.800;9.216;2023-04-25T06:10:02;3.70;;;3.17;;
14205;SDS011;7186;48.800;9.216;2023-04-25T06:12:28;3.57;;;3.10;;
14205;SDS011;7186;48.800;9.216;2023-04-25T06:14:53;3.17;;;2.87;;
14205;SDS011;7186;48.800;9.216;2023-04-25T06:17:19;2.97;;;2.70;;
14205;SDS011;7186;48.800;9.216;2023-04-25T06:19:44;3.80;;;2.57;;
14205;SDS011;7186;48.800;9.216;2023-04-25T06:22:09;2.97;;;2.67;;
14205;SDS011;7186;48.800;9.216;2023-04-25T06:24:35;4.53;;;2.97;;
14205;SDS011;7186;48.800;9.216;2023-04-25T06:27:00;3.97;;;2.87;;
14205;SDS011;7186;48.800;9.216;2023-04-25T06:29:25;4.77;;;3.07;;
14205;SDS011;7186;48.800;9.216;2023-04-25T06:31:51;4.53;;;3.20;;
14205;SDS011;7186;48.800;9.216;2023-04-25T06:34:16;17.43;;;7.67;;
14205;SDS011;7186;48.800;9.216;2023-04-25T06:36:42;3.87;;;3.00;;
14205;SDS011;7186;48.800;9.216;2023-04-25T06:39:09;6.50;;;3.10;;
14205;SDS011;7186;48.800;9.216;2023-04-25T06:41:34;4.77;;;2.83;;
14205;SDS011;7186;48.800;9.216;2023-04-25T06:44:00;3.80;;;3.10;;
14205;SDS011;7186;48.800;9.216;2023-04-25T06:46:26;4.50;;;3.27;;
14205;SDS011;7186;48.800;9.216;2023-04-25T06:48:51;3.40;;;2.70;;
14205;SDS011;7186;48.800;9.216;2023-04-25T06:51:16;3.70;;;2.90;;
14205;SDS011;7186;48.800;9.216;2023-04-25T06:53:42;2.87;;;2.50;;
14205;SDS011;7186;48.800;9.216;2023-04-25T06:56:07;4.90;;;3.33;;
14205;SDS011;7186;48.800;9.216;2023-04-25T06:58:33;6.47;;;3.10;;
14205;SDS011;7186;48.800;9.216;2023-04-25T07:00:58;4.00;;;3.00;;
14205;SDS011;7186;48.800;9.216;2023-04-25T07:03:23;3.73;;;3.20;;
14205;SDS011;7186;48.800;9.216;2023-04-25T07:05:49;8.27;;;3.30;;
14205;SDS011;7186;48.800;9.216;2023-04-25T07:08:14;4.20;;;3.27;;
14205;SDS011;7186;48.800;9.216;2023-04-25T07:10:39;3.87;;;2.97;;
14205;SDS011;7186;48.800;9.216;2023-04-25T07:13:05;3.63;;;2.70;;
14205;SDS011;7186;48.800;9.216;2023-04-25T07:15:30;3.80;;;3.00;;
14205;SDS011;7186;48.800;9.216;2023-04-25T07:17:55;4.07;;;3.10;;
14205;SDS011;7186;48.800;9.216;2023-04-25T07:20:20;4.80;;;3.60;;
14205;SDS011;7186;48.800;9.216;2023-04-25T07:22:46;6.00;;;3.77;;
14205;SDS011;7186;48.800;9.216;2023-04-25T07:25:11;4.77;;;3.60;;
14205;SDS011;7186;48.800;9.216;2023-04-25T07:27:36;4.27;;;3.43;;
14205;SDS011;7186;48.800;9.216;2023-04-25T07:30:02;8.40;;;4.13;;
14205;SDS011;7186;48.800;9.216;2023-04-25T07:32:28;5.47;;;3.80;;
14205;SDS011;7186;48.800;9.216;2023-04-25T07:34:53;12.17;;;4.27;;
14205;SDS011;7186;48.800;9.216;2023-04-25T07:37:19;4.40;;;4.00;;
14205;SDS011;7186;48.800;9.216;2023-04-25T07:39:44;4.73;;;3.83;;
14205;SDS011;7186;48.800;9.216;2023-04-25T07:42:11;4.60;;;4.03;;
14205;SDS011;7186;48.800;9.216;2023-04-25T07:44:36;7.93;;;3.93;;
14205;SDS011;7186;48.800;9.216;2023-04-25T07:47:06;5.37;;;3.83;;
14205;SDS011;7186;48.800;9.216;2023-04-25T07:49:32;5.50;;;3.90;;
14205;SDS011;7186;48.800;9.216;2023-04-25T07:51:57;6.60;;;4.00;;
14205;SDS011;7186;48.800;9.216;2023-04-25T07:54:22;4.87;;;4.03;;
14205;SDS011;7186;48.800;9.216;2023-04-25T07:56:48;11.10;;;5.40;;
14205;SDS011;7186;48.800;9.216;2023-04-25T07:59:13;8.40;;;4.20;;
14205;SDS011;7186;48.800;9.216;2023-04-25T08:01:38;5.33;;;4.30;;
14205;SDS011;7186;48.800;9.216;2023-04-25T08:04:03;6.60;;;4.77;;
14205;SDS011;7186;48.800;9.216;2023-04-25T08:06:28;6.20;;;4.50;;
14205;SDS011;7186;48.800;9.216;2023-04-25T08:08:54;7.53;;;4.30;;
14205;SDS011;7186;48.800;9.216;2023-04-25T08:11:19;6.97;;;4.50;;
14205;SDS011;7186;48.800;9.216;2023-04-25T08:13:45;5.43;;;4.30;;
14205;SDS011;7186;48.800;9.216;2023-04-25T08:16:10;6.40;;;4.50;;
14205;SDS011;7186;48.800;9.216;2023-04-25T08:18:35;7.27;;;4.60;;
14205;SDS011;7186;48.800;9.216;2023-04-25T08:21:00;6.30;;;4.40;;
14205;SDS011;7186;48.800;9.216;2023-04-25T08:23:26;6.07;;;4.10;;
14205;SDS011;7186;48.800;9.216;2023-04-25T08:25:51;9.97;;;3.87;;
14205;SDS011;7186;48.800;9.216;2023-04-25T08:28:16;5.57;;;3.90;;
14205;SDS011;7186;48.800;9.216;2023-04-25T08:30:41;6.33;;;4.70;;
14205;SDS011;7186;48.800;9.216;2023-04-25T08:33:06;5.10;;;4.07;;
14205;SDS011;7186;48.800;9.216;2023-04-25T08:35:32;6.53;;;4.10;;
14205;SDS011;7186;48.800;9.216;2023-04-25T08:37:58;8.10;;;4.30;;
14205;SDS011;7186;48.800;9.216;2023-04-25T08:40:23;5.60;;;3.93;;
14205;SDS011;7186;48.800;9.216;2023-04-25T08:42:53;6.67;;;4.17;;
14205;SDS011;7186;48.800;9.216;2023-04-25T08:45:19;27.17;;;6.67;;
14205;SDS011;7186;48.800;9.216;2023-04-25T08:47:45;12.00;;;4.87;;
14205;SDS011;7186;48.800;9.216;2023-04-25T08:50:10;5.10;;;4.17;;
14205;SDS011;7186;48.800;9.216;2023-04-25T08:52:36;5.10;;;4.20;;
14205;SDS011;7186;48.800;9.216;2023-04-25T08:55:03;5.90;;;4.77;;
14205;SDS011;7186;48.800;9.216;2023-04-25T08:57:29;7.97;;;5.10;;
14205;SDS011;7186;48.800;9.216;2023-04-25T08:59:56;5.20;;;4.63;;
14205;SDS011;7186;48.800;9.216;2023-04-25T09:02:22;6.13;;;4.00;;
14205;SDS011;7186;48.800;9.216;2023-04-25T09:04:47;9.83;;;4.33;;
14205;SDS011;7186;48.800;9.216;2023-04-25T09:07:12;22.93;;;5.70;;
14205;SDS011;7186;48.800;9.216;2023-04-25T09:09:40;19.37;;;6.23;;
14205;SDS011;7186;48.800;9.216;2023-04-25T09:12:05;6.47;;;4.20;;
14205;SDS011;7186;48.800;9.216;2023-04-25T09:14:31;6.33;;;4.57;;
14205;SDS011;7186;48.800;9.216;2023-04-25T09:19:21;4.83;;;3.90;;
14205;SDS011;7186;48.800;9.216;2023-04-25T09:21:50;5.03;;;3.90;;
14205;SDS011;7186;48.800;9.216;2023-04-25T09:24:16;6.60;;;4.23;;
14205;SDS011;7186;48.800;9.216;2023-04-25T09:26:41;6.93;;;4.73;;
14205;SDS011;7186;48.800;9.216;2023-04-25T09:29:06;4.70;;;4.20;;
14205;SDS011;7186;48.800;9.216;2023-04-25T09:31:32;5.87;;;4.40;;
14205;SDS011;7186;48.800;9.216;2023-04-25T09:33:58;4.37;;;3.83;;
14205;SDS011;7186;48.800;9.216;2023-04-25T09:36:26;5.43;;;3.80;;
14205;SDS011;7186;48.800;9.216;2023-04-25T09:38:51;10.17;;;4.23;;
14205;SDS011;7186;48.800;9.216;2023-04-25T09:41:24;5.37;;;3.83;;
14205;SDS011;7186;48.800;9.216;2023-04-25T09:43:49;6.27;;;4.40;;
14205;SDS011;7186;48.800;9.216;2023-04-25T09:46:15;6.50;;;4.40;;
14205;SDS011;7186;48.800;9.216;2023-04-25T09:48:43;3.30;;;3.00;;
14205;SDS011;7186;48.800;9.216;2023-04-25T09:51:13;3.43;;;3.13;;
14205;SDS011;7186;48.800;9.216;2023-04-25T09:53:47;3.27;;;2.97;;
14205;SDS011;7186;48.800;9.216;2023-04-25T09:56:16;2.40;;;2.20;;
14205;SDS011;7186;48.800;9.216;2023-04-25T09:58:41;3.27;;;2.33;;
14205;SDS011;7186;48.800;9.216;2023-04-25T10:01:08;2.57;;;2.33;;
14205;SDS011;7186;48.800;9.216;2023-04-25T10:03:34;3.43;;;2.80;;
14205;SDS011;7186;48.800;9.216;2023-04-25T10:06:00;3.67;;;2.80;;
14205;SDS011;7186;48.800;9.216;2023-04-25T10:08:27;2.80;;;2.50;;
14205;SDS011;7186;48.800;9.216;2023-04-25T10:10:54;3.50;;;3.00;;
14205;SDS011;7186;48.800;9.216;2023-04-25T10:13:20;6.03;;;4.20;;
14205;SDS011;7186;48.800;9.216;2023-04-25T10:15:45;3.33;;;3.00;;
14205;SDS011;7186;48.800;9.216;2023-04-25T10:18:11;3.53;;;2.83;;
14205;SDS011;7186;48.800;9.216;2023-04-25T10:20:37;3.97;;;2.40;;
14205;SDS011;7186;48.800;9.216;2023-04-25T10:23:08;3.40;;;2.87;;
14205;SDS011;7186;48.800;9.216;2023-04-25T10:25:35;3.77;;;2.93;;
14205;SDS011;7186;48.800;9.216;2023-04-25T10:28:02;9.33;;;3.70;;
14205;SDS011;7186;48.800;9.216;2023-04-25T10:30:28;5.00;;;3.80;;
14205;SDS011;7186;48.800;9.216;2023-04-25T10:32:54;4.83;;;4.30;;
14205;SDS011;7186;48.800;9.216;2023-04-25T10:35:26;4.83;;;3.83;;
14205;SDS011;7186;48.800;9.216;2023-04-25T10:38:10;5.17;;;3.70;;
14205;SDS011;7186;48.800;9.216;2023-04-25T10:40:37;2.47;;;2.23;;
14205;SDS011;7186;48.800;9.216;2023-04-25T10:45:52;4.37;;;2.77;;
14205;SDS011;7186;48.800;9.216;2023-04-25T10:48:27;3.57;;;2.60;;
14205;SDS011;7186;48.800;9.216;2023-04-25T10:51:08;4.20;;;3.20;;
14205;SDS011;7186;48.800;9.216;2023-04-25T10:53:34;4.47;;;3.63;;
14205;SDS011;7186;48.800;9.216;2023-04-25T10:55:59;6.27;;;4.00;;
14205;SDS011;7186;48.800;9.216;2023-04-25T10:58:25;4.80;;;4.20;;
14205;SDS011;7186;48.800;9.216;2023-04-25T11:00:50;5.20;;;4.20;;
14205;SDS011;7186;48.800;9.216;2023-04-25T11:03:16;6.30;;;4.47;;
14205;SDS011;7186;48.800;9.216;2023-04-25T11:05:41;6.97;;;4.37;;
14205;SDS011;7186;48.800;9.216;2023-04-25T11:08:11;5.73;;;3.70;;
14205;SDS011;7186;48.800;9.216;2023-04-25T11:10:36;6.63;;;3.20;;
14205;SDS011;7186;48.800;9.216;2023-04-25T11:13:02;5.33;;;3.40;;
14205;SDS011;7186;48.800;9.216;2023-04-25T11:15:28;2.97;;;2.53;;
14205;SDS011;7186;48.800;9.216;2023-04-25T11:17:54;3.07;;;2.47;;
14205;SDS011;7186;48.800;9.216;2023-04-25T11:20:20;2.83;;;2.37;;
14205;SDS011;7186;48.800;9.216;2023-04-25T11:22:46;11.93;;;3.30;;
14205;SDS011;7186;48.800;9.216;2023-04-25T11:25:11;8.47;;;3.27;;
14205;SDS011;7186;48.800;9.216;2023-04-25T11:27:38;4.70;;;3.13;;
14205;SDS011;7186;48.800;9.216;2023-04-25T11:30:13;7.73;;;3.83;;
14205;SDS011;7186;48.800;9.216;2023-04-25T11:32:39;14.17;;;3.67;;
14205;SDS011;7186;48.800;9.216;2023-04-25T11:35:04;5.07;;;2.90;;
14205;SDS011;7186;48.800;9.216;2023-04-25T11:37:31;8.20;;;3.53;;
14205;SDS011;7186;48.800;9.216;2023-04-25T11:39:56;4.70;;;3.33;;
14205;SDS011;7186;48.800;9.216;2023-04-25T11:42:21;4.90;;;3.60;;
14205;SDS011;7186;48.800;9.216;2023-04-25T11:44:46;9.87;;;3.50;;
14205;SDS011;7186;48.800;9.216;2023-04-25T11:47:11;6.93;;;3.33;;
14205;SDS011;7186;48.800;9.216;2023-04-25T11:49:37;11.07;;;3.60;;
14205;SDS011;7186;48.800;9.216;2023-04-25T11:52:02;6.93;;;3.07;;
14205;SDS011;7186;48.800;9.216;2023-04-25T11:54:27;2.77;;;2.20;;
14205;SDS011;7186;48.800;9.216;2023-04-25T11:56:53;13.43;;;3.43;;
14205;SDS011;7186;48.800;9.216;2023-04-25T11:59:18;4.10;;;3.13;;
14205;SDS011;7186;48.800;9.216;2023-04-25T12:01:48;8.90;;;3.00;;
14205;SDS011;7186;48.800;9.216;2023-04-25T12:06:39;5.60;;;3.67;;
14205;SDS011;7186;48.800;9.216;2023-04-25T12:09:08;4.83;;;3.47;;
14205;SDS011;7186;48.800;9.216;2023-04-25T12:11:55;4.30;;;3.57;;
14205;SDS011;7186;48.800;9.216;2023-04-25T12:14:22;5.53;;;3.47;;
14205;SDS011;7186;48.800;9.216;2023-04-25T12:16:51;6.73;;;4.03;;
14205;SDS011;7186;48.800;9.216;2023-04-25T12:19:17;5.53;;;3.73;;
14205;SDS011;7186;48.800;9.216;2023-04-25T12:21:43;4.53;;;3.67;;
14205;SDS011;7186;48.800;9.216;2023-04-25T12:24:18;5.47;;;4.10;;
14205;SDS011;7186;48.800;9.216;2023-04-25T12:29:16;5.90;;;4.20;;
14205;SDS011;7186;48.800;9.216;2023-04-25T12:31:42;6.67;;;4.20;;
14205;SDS011;7186;48.800;9.216;2023-04-25T12:34:07;5.83;;;4.13;;
14205;SDS011;7186;48.800;9.216;2023-04-25T12:36:32;5.93;;;4.37;;
14205;SDS011;7186;48.800;9.216;2023-04-25T12:38:58;9.13;;;4.27;;
14205;SDS011;7186;48.800;9.216;2023-04-25T12:41:28;20.30;;;6.70;;
14205;SDS011;7186;48.800;9.216;2023-04-25T12:43:54;10.33;;;4.87;;
14205;SDS011;7186;48.800;9.216;2023-04-25T12:46:19;6.97;;;4.63;;
14205;SDS011;7186;48.800;9.216;2023-04-25T12:48:44;8.90;;;5.10;;
14205;SDS011;7186;48.800;9.216;2023-04-25T12:51:09;8.50;;;4.70;;
14205;SDS011;7186;48.800;9.216;2023-04-25T12:53:35;8.93;;;5.37;;
14205;SDS011;7186;48.800;9.216;2023-04-25T12:56:02;9.13;;;5.70;;
14205;SDS011;7186;48.800;9.216;2023-04-25T12:58:28;13.37;;;6.10;;
14205;SDS011;7186;48.800;9.216;2023-04-25T13:00:53;9.80;;;5.80;;
14205;SDS011;7186;48.800;9.216;2023-04-25T13:03:18;7.40;;;5.20;;
14205;SDS011;7186;48.800;9.216;2023-04-25T13:05:43;7.70;;;5.20;;
14205;SDS011;7186;48.800;9.216;2023-04-25T13:08:08;17.27;;;6.73;;
14205;SDS011;7186;48.800;9.216;2023-04-25T13:10:34;9.03;;;5.60;;
14205;SDS011;7186;48.800;9.216;2023-04-25T13:13:00;9.30;;;5.00;;
14205;SDS011;7186;48.800;9.216;2023-04-25T13:15:26;7.27;;;5.30;;
14205;SDS011;7186;48.800;9.216;2023-04-25T13:17:51;5.93;;;4.33;;
14205;SDS011;7186;48.800;9.216;2023-04-25T13:20:17;6.97;;;4.97;;
14205;SDS011;7186;48.800;9.216;2023-04-25T13:22:43;8.63;;;5.73;;
14205;SDS011;7186;48.800;9.216;2023-04-25T13:25:10;10.77;;;5.90;;
14205;SDS011;7186;48.800;9.216;2023-04-25T13:27:36;11.47;;;6.20;;
14205;SDS011;7186;48.800;9.216;2023-04-25T13:30:05;8.33;;;5.47;;
14205;SDS011;7186;48.800;9.216;2023-04-25T13:32:35;7.20;;;5.30;;
14205;SDS011;7186;48.800;9.216;2023-04-25T13:35:01;12.90;;;5.03;;
14205;SDS011;7186;48.800;9.216;2023-04-25T13:37:27;8.10;;;5.20;;
14205;SDS011;7186;48.800;9.216;2023-04-25T13:39:52;8.00;;;5.43;;
14205;SDS011;7186;48.800;9.216;2023-04-25T13:42:20;10.07;;;6.50;;
14205;SDS011;7186;48.800;9.216;2023-04-25T13:44:45;7.80;;;5.20;;
14205;SDS011;7186;48.800;9.216;2023-04-25T13:47:10;7.53;;;5.77;;
14205;SDS011;7186;48.800;9.216;2023-04-25T13:49:36;8.07;;;6.07;;
14205;SDS011;7186;48.800;9.216;2023-04-25T13:52:01;9.93;;;6.60;;
14205;SDS011;7186;48.800;9.216;2023-04-25T13:54:27;12.07;;;7.30;;
14205;SDS011;7186;48.800;9.216;2023-04-25T13:56:52;10.20;;;7.57;;
14205;SDS011;7186;48.800;9.216;2023-04-25T13:59:20;10.10;;;7.30;;
14205;SDS011;7186;48.800;9.216;2023-04-25T14:01:45;11.23;;;7.90;;
14205;SDS011;7186;48.800;9.216;2023-04-25T14:04:11;10.80;;;7.43;;
14205;SDS011;7186;48.800;9.216;2023-04-25T14:06:36;11.70;;;7.87;;
14205;SDS011;7186;48.800;9.216;2023-04-25T14:09:01;11.20;;;7.27;;
14205;SDS011;7186;48.800;9.216;2023-04-25T14:11:28;9.43;;;6.97;;
14205;SDS011;7186;48.800;9.216;2023-04-25T14:13:53;14.57;;;7.33;;
14205;SDS011;7186;48.800;9.216;2023-04-25T14:16:18;9.17;;;6.93;;
14205;SDS011;7186;48.800;9.216;2023-04-25T14:18:44;12.77;;;7.63;;
14205;SDS011;7186;48.800;9.216;2023-04-25T14:21:09;11.57;;;7.17;;
14205;SDS011;7186;48.800;9.216;2023-04-25T14:23:35;7.87;;;5.70;;
14205;SDS011;7186;48.800;9.216;2023-04-25T14:26:01;10.93;;;6.37;;
14205;SDS011;7186;48.800;9.216;2023-04-25T14:28:26;8.07;;;6.07;;
14205;SDS011;7186;48.800;9.216;2023-04-25T14:30:51;8.20;;;5.63;;
14205;SDS011;7186;48.800;9.216;2023-04-25T14:33:17;11.50;;;6.03;;
14205;SDS011;7186;48.800;9.216;2023-04-25T14:35:42;8.17;;;5.63;;
14205;SDS011;7186;48.800;9.216;2023-04-25T14:38:07;8.80;;;5.77;;
14205;SDS011;7186;48.800;9.216;2023-04-25T14:40:32;7.93;;;5.57;;
14205;SDS011;7186;48.800;9.216;2023-04-25T14:42:58;9.43;;;5.43;;
14205;SDS011;7186;48.800;9.216;2023-04-25T14:45:23;7.87;;;5.40;;
14205;SDS011;7186;48.800;9.216;2023-04-25T14:47:48;6.43;;;4.60;;
14205;SDS011;7186;48.800;9.216;2023-04-25T14:50:15;6.60;;;4.80;;
14205;SDS011;7186;48.800;9.216;2023-04-25T14:52:40;7.10;;;5.13;;
14205;SDS011;7186;48.800;9.216;2023-04-25T14:55:05;6.03;;;4.87;;
14205;SDS011;7186;48.800;9.216;2023-04-25T14:57:33;5.87;;;4.53;;
14205;SDS011;7186;48.800;9.216;2023-04-25T14:59:58;8.07;;;5.03;;
14205;SDS011;7186;48.800;9.216;2023-04-25T15:02:24;7.80;;;4.97;;